Time;durP1;ratioP1;P1;durP2;ratioP2;P2;SDS_P1;SDS_P2;PMS_P1;PMS_P2;Temp;Humidity;BMP_temperature;BMP_pressure;BME280_temperature;BME280_humidity;BME280_pressure;Samples;Min_cycle;Max_cycle;Signal;HPM_P1;HPM_P2
2022/11/20 00:01:10;;;;;;;3.63;2.10;;;12.40;96.70;;;;;;5084490;28;20508;-74
2022/11/20 00:03:38;;;;;;;2.63;1.92;;;12.40;96.70;;;;;;5087068;27;20035;-73
2022/11/20 00:06:09;;;;;;;2.60;1.95;;;12.40;96.70;;;;;;5084805;28;20046;-72
2022/11/20 00:08:37;;;;;;;2.88;2.10;;;12.40;96.70;;;;;;5121556;27;20039;-72
2022/11/20 00:11:06;;;;;;;2.88;2.00;;;12.40;96.70;;;;;;5118804;27;20047;-73
2022/11/20 00:13:42;;;;;;;2.75;1.80;;;12.40;96.70;;;;;;5108308;27;20101;-73
2022/11/20 00:16:13;;;;;;;3.13;2.13;;;12.40;96.70;;;;;;5116756;27;20035;-72
2022/11/20 00:18:42;;;;;;;4.45;2.67;;;12.40;96.70;;;;;;5095892;27;20100;-72
2022/11/20 00:21:14;;;;;;;3.67;2.75;;;12.40;96.70;;;;;;5114618;27;20036;-72
2022/11/20 00:23:42;;;;;;;2.85;2.28;;;12.40;96.70;;;;;;5119430;27;20046;-73
2022/11/20 00:26:12;;;;;;;3.03;2.10;;;12.40;96.70;;;;;;5099851;27;20106;-72
2022/11/20 00:28:40;;;;;;;4.85;2.60;;;12.40;96.70;;;;;;5101155;27;20054;-72
2022/11/20 00:31:11;;;;;;;3.42;2.45;;;12.30;96.70;;;;;;5088893;28;20047;-73
2022/11/20 00:33:39;;;;;;;3.72;2.80;;;12.30;96.70;;;;;;5114485;27;20066;-72
2022/11/20 00:36:10;;;;;;;5.22;2.47;;;12.30;96.70;;;;;;5109169;27;20032;-72
2022/11/20 00:38:38;;;;;;;4.22;3.00;;;12.30;96.70;;;;;;5116708;27;20039;-73
2022/11/20 00:41:08;;;;;;;3.42;2.80;;;12.30;96.70;;;;;;5094666;27;20039;-73
2022/11/20 00:43:36;;;;;;;16.60;4.38;;;12.30;96.70;;;;;;5119723;27;20111;-73
2022/11/20 00:46:07;;;;;;;5.35;3.30;;;12.30;96.70;;;;;;5095786;27;20047;-73
2022/11/20 00:48:36;;;;;;;3.65;2.88;;;12.20;96.70;;;;;;5105981;27;20056;-73
2022/11/20 00:51:05;;;;;;;4.57;2.88;;;12.20;96.70;;;;;;5086496;27;20040;-72
2022/11/20 00:53:33;;;;;;;2.88;2.50;;;12.20;96.70;;;;;;5112234;27;20112;-72
2022/11/20 00:56:02;;;;;;;2.50;2.08;;;12.20;96.70;;;;;;5109619;27;20048;-72
2022/11/20 00:58:32;;;;;;;4.63;2.50;;;12.20;96.70;;;;;;5108123;27;20057;-72
2022/11/20 01:01:05;;;;;;;3.85;2.75;;;12.20;96.70;;;;;;5116811;27;20072;-72
2022/11/20 01:03:33;;;;;;;2.55;2.08;;;12.30;96.70;;;;;;5085777;27;20043;-72
2022/11/20 01:06:04;;;;;;;3.42;2.33;;;12.20;96.70;;;;;;5096541;27;20104;-72
2022/11/20 01:08:33;;;;;;;2.83;2.05;;;12.20;96.70;;;;;;5096706;28;20795;-72
2022/11/20 01:11:02;;;;;;;2.78;2.08;;;12.20;96.70;;;;;;5070709;28;20032;-72
2022/11/20 01:13:37;;;;;;;3.08;1.90;;;12.20;96.70;;;;;;5116742;27;20047;-72
2022/11/20 01:16:06;;;;;;;3.63;1.90;;;12.20;96.70;;;;;;5106812;27;20052;-72
2022/11/20 01:18:34;;;;;;;4.78;2.55;;;12.30;96.70;;;;;;5116032;27;20111;-72
2022/11/20 01:21:07;;;;;;;2.35;2.10;;;12.30;96.70;;;;;;5088703;28;20051;-72
2022/11/20 01:23:37;;;;;;;3.40;2.40;;;12.30;96.70;;;;;;5091992;28;20093;-72
2022/11/20 01:26:07;;;;;;;6.35;4.50;;;12.20;96.70;;;;;;5109196;27;20040;-72
2022/11/20 01:28:36;;;;;;;5.22;3.17;;;12.00;96.70;;;;;;5093229;27;20062;-72
2022/11/20 01:31:12;;;;;;;12.25;7.38;;;11.80;96.70;;;;;;5118362;27;20053;-72
2022/11/20 01:33:41;;;;;;;5.05;3.70;;;11.60;96.70;;;;;;5093434;28;20505;-72
2022/11/20 01:36:12;;;;;;;7.47;4.40;;;11.40;96.70;;;;;;5109787;27;20047;-72
2022/11/20 01:38:40;;;;;;;6.30;5.28;;;11.40;96.70;;;;;;5107873;27;20721;-71
2022/11/20 01:41:09;;;;;;;6.32;3.33;;;11.40;96.70;;;;;;5119070;27;20361;-72
2022/11/20 01:43:37;;;;;;;3.55;2.85;;;11.50;96.70;;;;;;5107935;27;20518;-72
2022/11/20 01:46:16;;;;;;;4.68;3.08;;;11.60;96.70;;;;;;5111572;27;20074;-72
2022/11/20 01:48:51;;;;;;;4.32;3.20;;;11.70;96.70;;;;;;5112945;27;20874;-72
2022/11/20 01:51:28;;;;;;;4.35;2.65;;;11.80;96.70;;;;;;5102945;27;20520;-72
2022/11/20 01:53:59;;;;;;;3.67;2.55;;;11.80;96.70;;;;;;5103651;27;20088;-71
2022/11/20 01:56:31;;;;;;;3.10;2.30;;;11.70;96.70;;;;;;5117669;27;20047;-72
2022/11/20 01:59:01;;;;;;;3.70;2.47;;;11.80;96.70;;;;;;5112461;27;20050;-72
2022/11/20 02:01:29;;;;;;;3.05;2.38;;;11.80;96.70;;;;;;5101101;27;20066;-72
2022/11/20 02:03:59;;;;;;;3.83;2.22;;;11.90;96.70;;;;;;5110374;27;20039;-72
2022/11/20 02:06:30;;;;;;;2.85;2.38;;;11.90;96.70;;;;;;5098122;28;20075;-72
2022/11/20 02:08:58;;;;;;;3.83;2.60;;;11.90;96.70;;;;;;5120383;27;20095;-72
2022/11/20 02:11:26;;;;;;;3.65;2.55;;;11.90;96.70;;;;;;5093620;27;20040;-72
2022/11/20 02:13:55;;;;;;;3.75;2.85;;;11.90;96.70;;;;;;5088369;27;20047;-72
2022/11/20 02:16:25;;;;;;;5.53;3.10;;;11.80;96.70;;;;;;5115786;27;20035;-72
2022/11/20 02:18:55;;;;;;;4.10;2.63;;;11.80;96.70;;;;;;5095033;27;20053;-72
2022/11/20 02:21:34;;;;;;;4.50;2.70;;;11.80;96.70;;;;;;5106272;27;20814;-72
2022/11/20 02:24:07;;;;;;;4.32;3.40;;;11.70;96.70;;;;;;5092158;27;20044;-72
2022/11/20 02:26:41;;;;;;;3.50;2.83;;;11.70;96.70;;;;;;5114362;27;20086;-72
2022/11/20 02:29:09;;;;;;;5.30;3.60;;;11.70;96.70;;;;;;5103358;27;20416;-72
2022/11/20 02:31:41;;;;;;;6.72;3.35;;;11.40;96.70;;;;;;5088168;28;20032;-72
2022/11/20 02:34:09;;;;;;;6.60;3.47;;;11.20;96.70;;;;;;5120598;27;20580;-72
2022/11/20 02:36:40;;;;;;;4.88;3.40;;;11.20;96.70;;;;;;5093004;27;20461;-72
2022/11/20 02:39:13;;;;;;;3.20;2.67;;;11.20;96.70;;;;;;5098208;27;20050;-72
2022/11/20 02:41:41;;;;;;;5.80;3.08;;;11.20;96.70;;;;;;5108107;27;20118;-72
2022/11/20 02:44:09;;;;;;;4.28;3.03;;;11.30;96.70;;;;;;5092781;28;20647;-73
2022/11/20 02:46:37;;;;;;;3.92;3.03;;;11.30;96.70;;;;;;5091598;28;20050;-72
2022/11/20 02:49:05;;;;;;;4.20;2.80;;;11.40;96.70;;;;;;5116690;27;20047;-72
2022/11/20 02:51:33;;;;;;;4.93;3.90;;;11.50;96.70;;;;;;5088979;28;20046;-71
2022/11/20 02:54:16;;;;;;;8.13;3.40;;;11.50;96.70;;;;;;5108664;28;20039;-72
2022/11/20 02:56:44;;;;;;;4.95;3.22;;;11.50;96.70;;;;;;5104167;27;20093;-72
2022/11/20 02:59:12;;;;;;;3.92;2.40;;;11.50;96.70;;;;;;5074922;28;20066;-72
2022/11/20 03:01:40;;;;;;;3.92;2.88;;;11.40;96.70;;;;;;5106522;28;20070;-71
2022/11/20 03:04:08;;;;;;;3.83;2.50;;;11.30;96.70;;;;;;5103606;28;20043;-72
2022/11/20 03:06:36;;;;;;;5.15;2.78;;;11.40;96.70;;;;;;5086810;28;20417;-72
2022/11/20 03:09:04;;;;;;;4.70;2.80;;;11.40;96.70;;;;;;5104445;28;20066;-72
2022/11/20 03:11:34;;;;;;;6.68;3.38;;;11.30;96.70;;;;;;5092695;28;20039;-72
2022/11/20 03:14:02;;;;;;;3.10;2.47;;;11.20;96.70;;;;;;5094020;28;20096;-72
2022/11/20 03:16:32;;;;;;;3.97;3.25;;;11.30;96.70;;;;;;5090553;28;20062;-72
2022/11/20 03:19:00;;;;;;;3.88;2.97;;;11.20;96.70;;;;;;5074853;28;20055;-71
2022/11/20 03:21:28;;;;;;;5.13;2.88;;;11.20;96.70;;;;;;5086653;28;20414;-71
2022/11/20 03:23:56;;;;;;;7.50;3.40;;;11.20;96.70;;;;;;5091287;28;20036;-71
2022/11/20 03:26:25;;;;;;;4.45;2.92;;;11.20;96.70;;;;;;5120271;28;20046;-71
2022/11/20 03:28:57;;;;;;;4.05;2.80;;;11.30;96.70;;;;;;5109211;28;20032;-71
2022/11/20 03:31:27;;;;;;;3.75;2.90;;;11.40;96.70;;;;;;5118281;28;20496;-71
2022/11/20 03:33:57;;;;;;;3.95;2.58;;;11.40;96.70;;;;;;5089777;28;20055;-70
2022/11/20 03:36:25;;;;;;;3.35;2.90;;;11.40;96.70;;;;;;5086780;28;20054;-71
2022/11/20 03:38:55;;;;;;;4.85;3.40;;;11.40;96.70;;;;;;5099998;28;20547;-71
2022/11/20 03:41:24;;;;;;;3.72;3.13;;;11.40;96.70;;;;;;5117211;28;20070;-71
2022/11/20 03:43:55;;;;;;;3.67;3.03;;;11.30;96.70;;;;;;5090007;28;20067;-71
2022/11/20 03:46:24;;;;;;;4.18;3.08;;;11.30;96.70;;;;;;5120260;28;20052;-71
2022/11/20 03:48:52;;;;;;;4.45;3.17;;;11.30;96.70;;;;;;5110962;27;20400;-71
2022/11/20 03:51:22;;;;;;;4.88;3.20;;;11.30;96.70;;;;;;5105556;28;20568;-71
2022/11/20 03:53:52;;;;;;;5.80;3.10;;;11.20;96.70;;;;;;5084359;28;20043;-71
2022/11/20 03:56:23;;;;;;;5.28;2.92;;;11.20;96.70;;;;;;5105913;28;20039;-71
2022/11/20 03:58:50;;;;;;;3.83;3.00;;;11.20;96.70;;;;;;5108143;27;20039;-71
2022/11/20 04:01:21;;;;;;;3.40;2.88;;;11.10;96.70;;;;;;5099309;28;20475;-71
2022/11/20 04:03:51;;;;;;;5.25;2.42;;;11.10;96.70;;;;;;5108553;27;20040;-71
2022/11/20 04:06:21;;;;;;;3.60;2.05;;;11.10;96.70;;;;;;5098389;28;20179;-71
2022/11/20 04:08:49;;;;;;;2.72;2.00;;;11.00;96.70;;;;;;5106454;28;20150;-71
2022/11/20 04:11:22;;;;;;;2.75;1.38;;;11.00;96.70;;;;;;5114253;28;20035;-71
2022/11/20 04:13:52;;;;;;;2.38;1.55;;;11.00;96.70;;;;;;5084715;27;20043;-71
2022/11/20 04:16:23;;;;;;;1.90;1.23;;;11.00;96.70;;;;;;5083756;27;20048;-71
2022/11/20 04:18:52;;;;;;;2.15;1.15;;;11.00;96.70;;;;;;5112703;27;20063;-71
2022/11/20 04:21:21;;;;;;;1.73;1.05;;;10.90;96.70;;;;;;5117330;27;20054;-71
2022/11/20 04:23:49;;;;;;;1.40;0.90;;;10.80;96.70;;;;;;5118472;27;20115;-70
2022/11/20 04:26:17;;;;;;;0.98;0.82;;;10.70;96.70;;;;;;5114084;27;20060;-71
2022/11/20 04:28:45;;;;;;;5.18;1.13;;;10.70;96.70;;;;;;5089812;27;20047;-71
2022/11/20 04:31:15;;;;;;;1.65;1.08;;;10.70;96.70;;;;;;5115204;27;20035;-71
2022/11/20 04:33:45;;;;;;;0.98;0.70;;;10.70;96.70;;;;;;5087696;28;20051;-71
2022/11/20 04:36:15;;;;;;;1.70;1.00;;;10.70;96.70;;;;;;5105080;28;20184;-71
2022/11/20 04:38:44;;;;;;;1.10;0.77;;;10.70;96.70;;;;;;5116888;27;20051;-71
2022/11/20 04:41:16;;;;;;;2.40;1.05;;;10.70;96.70;;;;;;5088721;27;20120;-71
2022/11/20 04:43:48;;;;;;;3.17;0.80;;;10.70;96.70;;;;;;5110757;27;20158;-71
2022/11/20 04:46:16;;;;;;;1.70;1.02;;;10.70;96.70;;;;;;5109952;27;20128;-70
2022/11/20 04:48:46;;;;;;;1.48;0.80;;;10.70;96.70;;;;;;5114371;27;20039;-71
2022/11/20 04:51:14;;;;;;;2.28;1.17;;;10.50;96.70;;;;;;5104776;27;20041;-71
2022/11/20 04:53:43;;;;;;;1.67;0.90;;;10.40;96.70;;;;;;5099222;27;20035;-71
2022/11/20 04:56:12;;;;;;;1.45;1.08;;;10.10;96.70;;;;;;5109519;27;20039;-71
2022/11/20 04:58:40;;;;;;;1.40;0.80;;;10.10;96.70;;;;;;5118452;27;20760;-71
2022/11/20 05:01:11;;;;;;;2.35;1.20;;;10.10;96.70;;;;;;5110475;27;20058;-70
2022/11/20 05:03:40;;;;;;;2.30;0.90;;;10.20;96.70;;;;;;5104710;27;20048;-71
2022/11/20 05:06:15;;;;;;;3.05;1.42;;;10.30;96.70;;;;;;5112878;27;20040;-71
2022/11/20 05:08:43;;;;;;;2.67;1.20;;;10.30;96.70;;;;;;5086867;28;20058;-71
2022/11/20 05:11:13;;;;;;;2.85;1.80;;;10.30;96.70;;;;;;5087284;28;20508;-71
2022/11/20 05:13:41;;;;;;;6.80;2.28;;;10.20;96.70;;;;;;5112553;27;20042;-71
2022/11/20 05:16:12;;;;;;;4.85;3.22;;;10.00;96.70;;;;;;5108395;27;20050;-71
2022/11/20 05:18:40;;;;;;;4.32;2.05;;;9.80;96.70;;;;;;5092486;27;20043;-71
2022/11/20 05:21:11;;;;;;;4.15;2.30;;;9.60;96.70;;;;;;5091103;27;20513;-71
2022/11/20 05:23:40;;;;;;;4.38;2.20;;;9.50;96.70;;;;;;5093937;28;20518;-71
2022/11/20 05:26:12;;;;;;;7.15;2.05;;;9.40;96.70;;;;;;5099737;27;20089;-71
2022/11/20 05:28:40;;;;;;;6.40;2.30;;;9.40;96.70;;;;;;5095142;28;20454;-71
2022/11/20 05:31:09;;;;;;;7.40;3.00;;;9.40;96.70;;;;;;5079278;27;20563;-71
2022/11/20 05:33:40;;;;;;;4.35;2.90;;;9.40;96.70;;;;;;5095966;27;20450;-71
2022/11/20 05:36:09;;;;;;;4.38;2.72;;;9.30;96.70;;;;;;5107988;27;20036;-71
2022/11/20 05:38:39;;;;;;;4.55;2.78;;;9.60;96.70;;;;;;5090601;28;20039;-72
2022/11/20 05:41:09;;;;;;;5.15;2.83;;;9.80;96.70;;;;;;5093934;27;20138;-71
2022/11/20 05:43:39;;;;;;;4.07;2.85;;;9.80;96.70;;;;;;5098068;27;20089;-71
2022/11/20 05:46:08;;;;;;;4.28;2.70;;;9.80;96.70;;;;;;5084990;27;20142;-71
2022/11/20 05:48:37;;;;;;;3.75;2.90;;;10.00;96.70;;;;;;5114010;27;20047;-72
2022/11/20 05:51:06;;;;;;;3.83;2.67;;;10.10;96.70;;;;;;5093539;27;20412;-71
2022/11/20 05:53:35;;;;;;;4.20;2.80;;;10.10;96.70;;;;;;5085384;28;20093;-71
2022/11/20 05:56:06;;;;;;;4.45;3.03;;;10.10;96.70;;;;;;5105586;27;20122;-71
2022/11/20 05:58:34;;;;;;;3.65;2.50;;;10.10;96.70;;;;;;5107896;27;20586;-71
2022/11/20 06:01:08;;;;;;;2.70;2.05;;;10.10;96.70;;;;;;5076983;28;20116;-71
2022/11/20 06:03:36;;;;;;;2.28;1.77;;;10.10;96.70;;;;;;5085875;28;20046;-71
2022/11/20 06:06:05;;;;;;;1.75;1.40;;;10.10;96.70;;;;;;5119376;27;20096;-71
2022/11/20 06:08:33;;;;;;;1.65;1.33;;;10.10;96.70;;;;;;5111909;27;20058;-71
2022/11/20 06:11:06;;;;;;;2.47;1.30;;;10.10;96.70;;;;;;5121349;27;20556;-71
2022/11/20 06:13:34;;;;;;;1.52;1.08;;;10.10;96.70;;;;;;5103623;27;20047;-71
2022/11/20 06:16:09;;;;;;;1.08;0.98;;;10.10;96.70;;;;;;5115481;27;20104;-71
2022/11/20 06:18:37;;;;;;;2.17;1.00;;;10.10;96.70;;;;;;5089982;27;20062;-71
2022/11/20 06:21:07;;;;;;;0.90;0.70;;;10.00;96.70;;;;;;5118806;27;20404;-71
2022/11/20 06:23:35;;;;;;;2.35;1.00;;;10.00;96.70;;;;;;5107553;27;20539;-71
2022/11/20 06:26:06;;;;;;;1.33;1.00;;;10.00;96.70;;;;;;5117049;27;20050;-71
2022/11/20 06:28:35;;;;;;;2.08;0.88;;;10.00;96.70;;;;;;5099480;27;20443;-71
2022/11/20 06:31:03;;;;;;;1.73;0.85;;;10.10;96.70;;;;;;5095641;27;20118;-71
2022/11/20 06:33:31;;;;;;;1.45;0.80;;;10.00;96.70;;;;;;5106372;27;20036;-71
2022/11/20 06:35:59;;;;;;;1.05;0.80;;;10.00;96.70;;;;;;5112753;27;20046;-71
2022/11/20 06:38:33;;;;;;;0.95;0.73;;;9.90;96.70;;;;;;5109916;27;20059;-71
2022/11/20 06:41:02;;;;;;;1.20;0.80;;;9.80;96.70;;;;;;5090342;28;20031;-71
2022/11/20 06:43:32;;;;;;;0.70;0.65;;;9.80;96.70;;;;;;5098100;27;20055;-71
2022/11/20 06:46:00;;;;;;;3.50;0.85;;;9.80;96.70;;;;;;5094737;27;20040;-71
2022/11/20 06:48:28;;;;;;;1.60;0.80;;;9.80;96.70;;;;;;5101762;27;20043;-71
2022/11/20 06:50:57;;;;;;;1.90;0.90;;;9.80;96.70;;;;;;5109848;28;20047;-71
2022/11/20 06:53:25;;;;;;;0.95;0.77;;;9.90;96.70;;;;;;5108821;27;20051;-71
2022/11/20 06:55:55;;;;;;;1.58;0.90;;;9.90;96.70;;;;;;5089486;28;20432;-71
2022/11/20 06:58:23;;;;;;;1.63;1.00;;;9.80;96.70;;;;;;5094560;27;20568;-71
2022/11/20 07:00:52;;;;;;;4.35;1.42;;;9.90;96.70;;;;;;5087231;28;20040;-71
2022/11/20 07:03:20;;;;;;;3.72;2.03;;;9.80;96.70;;;;;;5105622;28;20753;-71
2022/11/20 07:05:48;;;;;;;2.50;2.03;;;9.70;96.70;;;;;;5091902;28;20043;-71
2022/11/20 07:08:16;;;;;;;3.50;1.95;;;9.70;96.70;;;;;;5096088;27;20054;-71
2022/11/20 07:10:44;;;;;;;3.90;2.00;;;9.90;96.70;;;;;;5103748;28;20484;-71
2022/11/20 07:13:12;;;;;;;14.55;2.15;;;10.00;96.70;;;;;;5104067;28;20050;-71
2022/11/20 07:15:40;;;;;;;5.53;1.92;;;9.80;96.70;;;;;;5107437;28;20087;-71
2022/11/20 07:18:09;;;;;;;8.93;1.85;;;9.80;96.70;;;;;;5098857;27;20108;-71
2022/11/20 07:20:37;;;;;;;5.35;1.95;;;9.90;96.70;;;;;;5089364;28;20044;-71
2022/11/20 07:23:05;;;;;;;5.45;1.95;;;9.90;96.70;;;;;;5110448;28;20535;-70
2022/11/20 07:25:33;;;;;;;11.07;2.40;;;10.00;96.70;;;;;;5110759;28;20555;-70
2022/11/20 07:28:01;;;;;;;9.13;2.97;;;10.00;96.70;;;;;;5119644;28;20694;-71
2022/11/20 07:30:29;;;;;;;8.65;2.72;;;9.90;96.70;;;;;;5107330;28;20036;-70
2022/11/20 07:32:57;;;;;;;32.95;3.83;;;9.90;96.70;;;;;;5119329;28;20118;-70
2022/11/20 07:35:27;;;;;;;3.65;3.00;;;10.10;96.70;;;;;;5104690;28;20071;-71
2022/11/20 07:37:55;;;;;;;9.50;3.38;;;10.10;96.70;;;;;;5087332;28;20040;-70
2022/11/20 07:40:23;;;;;;;8.88;2.97;;;10.20;96.70;;;;;;5086363;28;20678;-70
2022/11/20 07:42:52;;;;;;;18.58;3.08;;;10.30;96.70;;;;;;5098363;28;20649;-71
2022/11/20 07:45:23;;;;;;;19.40;3.47;;;10.30;96.70;;;;;;5095667;28;20043;-70
2022/11/20 07:47:51;;;;;;;29.38;3.17;;;10.40;96.70;;;;;;5097287;28;20540;-70
2022/11/20 07:50:19;;;;;;;14.98;3.13;;;10.40;96.70;;;;;;5115777;27;20131;-71
2022/11/20 07:52:48;;;;;;;9.30;2.63;;;10.40;96.70;;;;;;5117024;27;20043;-70
2022/11/20 07:55:16;;;;;;;10.48;3.08;;;10.60;96.70;;;;;;5107982;27;20050;-71
2022/11/20 07:57:44;;;;;;;36.78;4.07;;;10.60;96.70;;;;;;5114904;27;20043;-70
2022/11/20 08:00:13;;;;;;;34.78;3.55;;;10.50;96.70;;;;;;5112635;27;20049;-71
2022/11/20 08:02:41;;;;;;;25.73;5.07;;;10.40;96.70;;;;;;5095837;28;20135;-70
2022/11/20 08:05:10;;;;;;;24.67;3.60;;;10.30;96.70;;;;;;5101557;27;20111;-71
2022/11/20 08:07:38;;;;;;;9.02;3.17;;;10.30;96.70;;;;;;5116136;27;20036;-70
2022/11/20 08:10:09;;;;;;;17.92;3.40;;;10.40;96.70;;;;;;5125237;27;20037;-70
2022/11/20 08:15:31;;;;;;;16.88;2.95;;;10.30;96.70;;;;;;5122469;27;20523;-70
2022/11/20 08:18:24;;;;;;;8.70;2.53;;;10.30;96.70;;;;;;5093889;27;20035;-70
2022/11/20 08:21:03;;;;;;;6.85;2.75;;;10.30;96.70;;;;;;5085277;27;20053;-70
2022/11/20 08:23:31;;;;;;;6.20;2.15;;;10.20;96.70;;;;;;5089140;27;20120;-70
2022/11/20 08:26:01;;;;;;;8.63;2.58;;;10.30;96.70;;;;;;5102176;27;20135;-70
2022/11/20 08:28:28;;;;;;;5.32;2.83;;;10.30;96.70;;;;;;5118479;27;20494;-70
2022/11/20 08:30:59;;;;;;;4.13;2.78;;;10.40;96.70;;;;;;5083001;28;20050;-70
2022/11/20 08:33:27;;;;;;;6.90;3.50;;;10.50;96.70;;;;;;5088012;27;20458;-72
2022/11/20 08:35:59;;;;;;;3.97;3.50;;;10.60;96.70;;;;;;5078888;27;20139;-70
2022/11/20 08:38:27;;;;;;;7.75;3.78;;;10.70;96.70;;;;;;5091691;27;20512;-70
2022/11/20 08:43:45;;;;;;;11.90;5.82;;;10.90;96.70;;;;;;5119692;27;20063;-71
2022/11/20 08:46:13;;;;;;;6.97;4.43;;;10.90;96.70;;;;;;5089015;27;20587;-71
2022/11/20 08:48:42;;;;;;;5.15;4.40;;;11.00;96.70;;;;;;5122043;27;20039;-71
2022/11/20 08:51:10;;;;;;;6.78;4.47;;;11.00;96.70;;;;;;5109203;27;20057;-71
2022/11/20 08:53:38;;;;;;;9.85;5.20;;;11.10;96.70;;;;;;5092668;28;20044;-74
2022/11/20 08:56:07;;;;;;;7.80;4.22;;;11.20;96.70;;;;;;5084925;28;20551;-70
2022/11/20 08:58:35;;;;;;;5.18;3.90;;;11.30;96.70;;;;;;5114763;27;20051;-71
2022/11/20 09:01:24;;;;;;;5.57;4.38;;;11.30;96.70;;;;;;5090223;27;20039;-72
2022/11/20 09:03:54;;;;;;;5.13;4.28;;;11.40;96.70;;;;;;5102740;27;20364;-71
2022/11/20 09:06:22;;;;;;;7.30;5.32;;;11.50;96.70;;;;;;5094574;27;20070;-71
2022/11/20 09:08:52;;;;;;;8.38;7.07;;;11.60;96.70;;;;;;5071536;27;20083;-71
2022/11/20 09:11:20;;;;;;;11.27;6.32;;;11.60;96.70;;;;;;5091720;27;20517;-71
2022/11/20 09:13:48;;;;;;;7.43;5.40;;;11.60;96.70;;;;;;5100850;27;20043;-71
2022/11/20 09:16:16;;;;;;;4.97;4.45;;;11.80;96.70;;;;;;5106118;27;20112;-70
2022/11/20 09:18:45;;;;;;;5.22;4.53;;;11.70;96.70;;;;;;5109120;27;20040;-71
2022/11/20 09:21:13;;;;;;;8.48;5.70;;;11.80;96.70;;;;;;5084103;27;20035;-71
2022/11/20 09:23:42;;;;;;;12.00;9.20;;;12.00;96.70;;;;;;5105470;27;20035;-71
2022/11/20 09:26:12;;;;;;;9.18;6.45;;;12.10;96.70;;;;;;5097436;27;20384;-71
2022/11/20 09:28:41;;;;;;;7.72;6.78;;;12.20;96.70;;;;;;5095090;28;20229;-70
2022/11/20 09:31:14;;;;;;;7.30;6.03;;;12.30;96.70;;;;;;5110652;27;20039;-71
2022/11/20 09:33:42;;;;;;;6.10;5.43;;;12.30;96.70;;;;;;5086842;27;20069;-69
2022/11/20 09:36:12;;;;;;;6.40;5.68;;;12.40;96.70;;;;;;5106687;27;20043;-71
2022/11/20 09:38:40;;;;;;;6.80;5.88;;;12.50;96.70;;;;;;5109241;27;20062;-70
2022/11/20 09:41:30;;;;;;;5.93;5.15;;;12.60;96.70;;;;;;5087102;28;20044;-71
2022/11/20 09:44:07;;;;;;;6.43;5.30;;;12.50;96.70;;;;;;5104000;27;20055;-71
2022/11/20 09:46:38;;;;;;;;;;;12.70;96.70;;;;;;5105733;27;20082;-71
2022/11/20 09:49:27;;;;;;;9.50;8.20;;;12.70;96.70;;;;;;5107790;27;19923;-71
2022/11/20 09:52:19;;;;;;;7.03;5.50;;;12.80;96.70;;;;;;5101348;27;20032;-70
2022/11/20 09:54:48;;;;;;;5.95;4.00;;;12.80;96.70;;;;;;5100755;27;20044;-70
2022/11/20 09:57:21;;;;;;;4.03;3.47;;;12.90;96.70;;;;;;5105150;27;20118;-71
2022/11/20 09:59:53;;;;;;;4.28;3.67;;;13.00;96.70;;;;;;5087479;27;20046;-71
2022/11/20 10:02:29;;;;;;;5.28;4.43;;;13.20;96.70;;;;;;5098100;28;20447;-71
2022/11/20 10:05:01;;;;;;;4.63;3.88;;;13.20;96.70;;;;;;5097240;27;20131;-71
2022/11/20 10:07:39;;;;;;;5.18;3.80;;;13.30;96.70;;;;;;5112424;27;20042;-71
2022/11/20 10:10:16;;;;;;;4.78;3.22;;;13.50;96.70;;;;;;5121762;27;20047;-71
2022/11/20 10:13:02;;;;;;;2.80;2.55;;;13.60;96.70;;;;;;5110351;27;20142;-71
2022/11/20 10:15:46;;;;;;;3.70;2.72;;;13.90;96.70;;;;;;5078820;27;20047;-71
2022/11/20 10:18:29;;;;;;;3.40;2.80;;;14.00;96.70;;;;;;5106325;27;20031;-71
2022/11/20 10:21:07;;;;;;;3.17;2.53;;;14.10;96.70;;;;;;5117552;27;20047;-72
2022/11/20 10:23:56;;;;;;;4.45;2.63;;;14.10;96.70;;;;;;5104188;27;20043;-72
2022/11/20 10:26:35;;;;;;;7.35;2.90;;;14.20;96.70;;;;;;5097324;28;20159;-71
2022/11/20 10:29:11;;;;;;;3.92;2.47;;;14.30;96.70;;;;;;5118443;27;20056;-73
2022/11/20 10:31:42;;;;;;;9.27;2.53;;;14.40;96.70;;;;;;5114713;27;20130;-71
2022/11/20 10:34:21;;;;;;;4.70;2.35;;;14.50;96.70;;;;;;5085380;28;20479;-71
2022/11/20 10:36:55;;;;;;;2.17;1.70;;;14.60;96.70;;;;;;5102329;27;20039;-71
2022/11/20 10:39:33;;;;;;;2.30;1.80;;;14.60;96.70;;;;;;5107329;27;20050;-72
2022/11/20 10:42:02;;;;;;;3.40;1.80;;;14.70;96.70;;;;;;5093863;28;20154;-71
2022/11/20 10:47:27;;;;;;;2.42;1.67;;;14.80;96.70;;;;;;5108889;27;20039;-72
2022/11/20 10:49:58;;;;;;;2.65;1.65;;;14.90;96.70;;;;;;5102352;27;20058;-72
2022/11/20 10:52:37;;;;;;;3.47;1.70;;;15.10;96.70;;;;;;5104013;27;20100;-73
2022/11/20 10:55:19;;;;;;;3.50;1.95;;;15.20;96.70;;;;;;5118419;27;20094;-71
2022/11/20 10:57:56;;;;;;;3.03;1.35;;;15.20;96.70;;;;;;5105630;27;20562;-71
2022/11/20 11:00:24;;;;;;;;;;;15.10;96.70;;;;;;5111470;27;20616;-70
2022/11/20 11:02:53;;;;;;;2.45;1.30;;;15.20;96.70;;;;;;5097655;28;19923;-71
2022/11/20 11:05:32;;;;;;;3.20;1.60;;;15.30;96.70;;;;;;5094999;28;20130;-70
2022/11/20 11:08:00;;;;;;;2.90;1.58;;;15.40;96.70;;;;;;5103507;28;20047;-71
2022/11/20 11:10:38;;;;;;;2.85;1.42;;;15.50;96.70;;;;;;5088410;28;20473;-71
2022/11/20 11:13:06;;;;;;;12.65;2.28;;;15.50;96.70;;;;;;5112908;27;20410;-71
2022/11/20 11:15:38;;;;;;;13.70;2.55;;;15.70;96.70;;;;;;5108288;28;20093;-71
2022/11/20 11:18:09;;;;;;;5.68;1.45;;;15.90;96.70;;;;;;5097133;27;20050;-71
2022/11/20 11:20:38;;;;;;;9.05;1.90;;;15.90;96.70;;;;;;5097251;28;20373;-71
2022/11/20 11:23:29;;;;;;;3.35;1.30;;;16.10;96.70;;;;;;5109066;27;20139;-72
2022/11/20 11:26:00;;;;;;;6.43;1.70;;;16.30;96.70;;;;;;5097674;27;20054;-71
2022/11/20 11:28:28;;;;;;;2.63;1.95;;;16.30;96.70;;;;;;5123608;27;20496;-71
2022/11/20 11:30:56;;;;;;;5.60;2.80;;;16.40;96.70;;;;;;5089912;28;20071;-71
2022/11/20 11:33:26;;;;;;;3.00;1.80;;;16.50;96.70;;;;;;5115285;27;20043;-72
2022/11/20 11:35:58;;;;;;;2.92;1.40;;;16.70;96.70;;;;;;5091870;28;20097;-71
2022/11/20 11:38:30;;;;;;;2.78;1.70;;;16.70;96.70;;;;;;5115835;27;20044;-71
2022/11/20 11:41:01;;;;;;;3.42;2.10;;;16.80;96.70;;;;;;5116467;27;20054;-71
2022/11/20 11:46:28;;;;;;;2.97;1.90;;;16.80;96.70;;;;;;5083289;28;20047;-72
2022/11/20 11:49:01;;;;;;;2.05;1.48;;;17.00;96.70;;;;;;5076139;28;20459;-70
2022/11/20 11:51:36;;;;;;;1.90;1.30;;;17.00;96.70;;;;;;5085040;28;20118;-71
2022/11/20 11:54:16;;;;;;;2.75;2.35;;;17.10;96.70;;;;;;5051763;28;20079;-70
2022/11/20 11:56:46;;;;;;;3.85;2.95;;;17.10;96.70;;;;;;5070285;28;20127;-70
2022/11/20 11:59:22;;;;;;;2.38;1.90;;;17.20;96.70;;;;;;5074299;28;20385;-71
2022/11/20 12:01:55;;;;;;;1.98;1.58;;;17.40;96.70;;;;;;5073711;28;20055;-71
2022/11/20 12:04:40;;;;;;;2.40;1.83;;;17.50;96.70;;;;;;5072162;28;20045;-71
2022/11/20 12:07:13;;;;;;;4.13;2.92;;;17.60;96.70;;;;;;5074404;28;20040;-71
2022/11/20 12:10:03;;;;;;;7.15;5.93;;;17.70;96.70;;;;;;5082616;28;20051;-71
2022/11/20 12:12:38;;;;;;;4.18;3.78;;;17.80;96.70;;;;;;5074282;28;20051;-71
2022/11/20 12:15:11;;;;;;;3.23;1.57;;;17.70;96.70;;;;;;5070696;28;20134;-71
2022/11/20 12:17:39;;;;;;;2.28;1.67;;;17.70;96.70;;;;;;5074213;28;20641;-72
2022/11/20 12:20:13;;;;;;;2.67;2.00;;;17.80;96.70;;;;;;5060438;28;20094;-71
2022/11/20 12:22:51;;;;;;;3.60;1.35;;;17.90;96.70;;;;;;5067020;28;20110;-72
2022/11/20 12:25:22;;;;;;;2.28;1.70;;;18.00;96.70;;;;;;5073913;28;20109;-72
2022/11/20 12:28:22;;;;;;;2.28;0.85;;;18.10;96.70;;;;;;5063445;28;20044;-71
2022/11/20 12:31:12;;;;;;;1.75;0.60;;;18.10;96.70;;;;;;5076748;28;20072;-71
2022/11/20 12:33:55;;;;;;;1.20;0.80;;;18.00;96.70;;;;;;5066434;28;20049;-71
2022/11/20 12:36:33;;;;;;;1.88;0.80;;;18.00;96.70;;;;;;5078606;28;20044;-72
2022/11/20 12:39:19;;;;;;;1.42;1.05;;;18.10;96.70;;;;;;5065657;28;20063;-71
2022/11/20 12:45:16;;;;;;;2.53;1.10;;;18.20;96.70;;;;;;5107613;27;20054;-72
2022/11/20 12:47:49;;;;;;;;;;;18.40;96.70;;;;;;5093583;27;20695;-72
2022/11/20 12:50:27;;;;;;;1.52;1.00;;;18.40;96.70;;;;;;5120672;27;19934;-72
2022/11/20 12:53:05;;;;;;;3.20;1.40;;;18.40;96.70;;;;;;5103908;27;20100;-71
2022/11/20 12:55:51;;;;;;;1.70;1.13;;;18.40;96.70;;;;;;5093117;27;20059;-71
2022/11/20 12:58:26;;;;;;;1.40;0.80;;;18.50;96.70;;;;;;5085105;28;20634;-71
2022/11/20 13:01:08;;;;;;;2.22;1.20;;;18.60;96.70;;;;;;5113060;27;20047;-72
2022/11/20 13:03:44;;;;;;;3.03;1.50;;;18.50;96.70;;;;;;5120960;27;20896;-71
2022/11/20 13:06:16;;;;;;;2.10;1.50;;;18.40;96.70;;;;;;5095607;27;20058;-72
2022/11/20 13:08:50;;;;;;;3.67;2.17;;;18.40;96.70;;;;;;5104278;27;20542;-71
2022/11/20 13:11:27;;;;;;;2.78;2.00;;;18.50;96.70;;;;;;5072703;27;20480;-71
2022/11/20 13:14:11;;;;;;;2.30;1.63;;;18.60;96.70;;;;;;5118866;27;20054;-71
2022/11/20 13:16:48;;;;;;;3.25;1.35;;;18.70;96.70;;;;;;5110306;27;20408;-71
2022/11/20 13:19:17;;;;;;;2.95;1.15;;;18.70;96.70;;;;;;5114297;27;20508;-72
2022/11/20 13:21:48;;;;;;;1.33;0.80;;;18.80;96.70;;;;;;5111965;27;20162;-72
2022/11/20 13:24:26;;;;;;;1.55;0.93;;;18.60;96.70;;;;;;5118424;27;20043;-71